sensor_id;sensor_type;location;lat;lon;timestamp;P1;durP1;ratioP1;P2;durP2;ratioP2
45762;SDS011;37512;52.408;13.356;2022-08-18T00:00:47;9.77;;;6.00;;
45762;SDS011;37512;52.408;13.356;2022-08-18T00:04:49;9.25;;;6.93;;
45762;SDS011;37512;52.408;13.356;2022-08-18T00:08:56;16.45;;;6.65;;
45762;SDS011;37512;52.408;13.356;2022-08-18T00:12:59;7.65;;;6.43;;
45762;SDS011;37512;52.408;13.356;2022-08-18T00:17:01;14.35;;;6.85;;
45762;SDS011;37512;52.408;13.356;2022-08-18T00:21:03;10.23;;;6.97;;
45762;SDS011;37512;52.408;13.356;2022-08-18T00:25:06;9.75;;;6.95;;
45762;SDS011;37512;52.408;13.356;2022-08-18T00:29:10;10.48;;;7.03;;
45762;SDS011;37512;52.408;13.356;2022-08-18T00:33:11;9.65;;;6.75;;
45762;SDS011;37512;52.408;13.356;2022-08-18T00:37:13;10.25;;;7.25;;
45762;SDS011;37512;52.408;13.356;2022-08-18T00:41:14;11.35;;;7.05;;
45762;SDS011;37512;52.408;13.356;2022-08-18T00:45:17;8.88;;;6.63;;
45762;SDS011;37512;52.408;13.356;2022-08-18T00:49:25;10.07;;;7.18;;
45762;SDS011;37512;52.408;13.356;2022-08-18T00:53:28;8.23;;;6.75;;
45762;SDS011;37512;52.408;13.356;2022-08-18T00:57:35;8.63;;;6.65;;
45762;SDS011;37512;52.408;13.356;2022-08-18T01:01:37;7.95;;;6.38;;
45762;SDS011;37512;52.408;13.356;2022-08-18T01:05:42;9.10;;;6.75;;
45762;SDS011;37512;52.408;13.356;2022-08-18T01:09:50;7.53;;;6.28;;
45762;SDS011;37512;52.408;13.356;2022-08-18T01:13:52;13.30;;;6.97;;
45762;SDS011;37512;52.408;13.356;2022-08-18T01:17:54;7.63;;;6.78;;
45762;SDS011;37512;52.408;13.356;2022-08-18T01:26:37;10.23;;;7.32;;
45762;SDS011;37512;52.408;13.356;2022-08-18T01:30:47;10.60;;;6.97;;
45762;SDS011;37512;52.408;13.356;2022-08-18T01:34:51;10.45;;;7.47;;
45762;SDS011;37512;52.408;13.356;2022-08-18T01:38:52;11.02;;;7.20;;
45762;SDS011;37512;52.408;13.356;2022-08-18T01:42:54;9.80;;;7.20;;
45762;SDS011;37512;52.408;13.356;2022-08-18T01:46:56;9.25;;;7.03;;
45762;SDS011;37512;52.408;13.356;2022-08-18T01:50:58;11.52;;;7.47;;
45762;SDS011;37512;52.408;13.356;2022-08-18T01:55:00;8.32;;;7.32;;
45762;SDS011;37512;52.408;13.356;2022-08-18T01:59:05;10.38;;;7.90;;
45762;SDS011;37512;52.408;13.356;2022-08-18T02:03:11;8.90;;;7.43;;
45762;SDS011;37512;52.408;13.356;2022-08-18T02:07:14;8.80;;;7.10;;
45762;SDS011;37512;52.408;13.356;2022-08-18T02:11:18;8.88;;;7.95;;
45762;SDS011;37512;52.408;13.356;2022-08-18T02:15:19;10.68;;;8.25;;
45762;SDS011;37512;52.408;13.356;2022-08-18T02:19:21;9.23;;;7.28;;
45762;SDS011;37512;52.408;13.356;2022-08-18T02:23:22;11.00;;;7.60;;
45762;SDS011;37512;52.408;13.356;2022-08-18T02:27:25;9.65;;;8.15;;
45762;SDS011;37512;52.408;13.356;2022-08-18T02:31:28;12.80;;;8.07;;
45762;SDS011;37512;52.408;13.356;2022-08-18T02:35:29;12.80;;;7.95;;
45762;SDS011;37512;52.408;13.356;2022-08-18T02:39:32;11.13;;;7.88;;
45762;SDS011;37512;52.408;13.356;2022-08-18T02:43:36;11.23;;;8.02;;
45762;SDS011;37512;52.408;13.356;2022-08-18T02:47:38;11.30;;;8.55;;
45762;SDS011;37512;52.408;13.356;2022-08-18T02:51:40;9.70;;;7.80;;
45762;SDS011;37512;52.408;13.356;2022-08-18T02:55:44;9.82;;;8.77;;
45762;SDS011;37512;52.408;13.356;2022-08-18T02:59:46;11.88;;;8.63;;
45762;SDS011;37512;52.408;13.356;2022-08-18T03:03:48;10.27;;;8.38;;
45762;SDS011;37512;52.408;13.356;2022-08-18T03:07:50;9.93;;;8.38;;
45762;SDS011;37512;52.408;13.356;2022-08-18T03:11:52;9.27;;;8.20;;
45762;SDS011;37512;52.408;13.356;2022-08-18T03:15:53;9.63;;;8.45;;
45762;SDS011;37512;52.408;13.356;2022-08-18T03:19:57;10.40;;;8.52;;
45762;SDS011;37512;52.408;13.356;2022-08-18T03:24:01;14.73;;;9.23;;
45762;SDS011;37512;52.408;13.356;2022-08-18T03:28:10;10.30;;;9.05;;
45762;SDS011;37512;52.408;13.356;2022-08-18T03:32:12;13.05;;;9.07;;
45762;SDS011;37512;52.408;13.356;2022-08-18T03:36:15;11.50;;;8.98;;
45762;SDS011;37512;52.408;13.356;2022-08-18T03:40:18;12.90;;;9.98;;
45762;SDS011;37512;52.408;13.356;2022-08-18T03:44:21;12.90;;;9.68;;
45762;SDS011;37512;52.408;13.356;2022-08-18T03:48:23;13.57;;;9.60;;
45762;SDS011;37512;52.408;13.356;2022-08-18T03:52:25;14.05;;;10.05;;
45762;SDS011;37512;52.408;13.356;2022-08-18T03:56:31;12.57;;;9.85;;
45762;SDS011;37512;52.408;13.356;2022-08-18T04:00:39;15.60;;;10.27;;
45762;SDS011;37512;52.408;13.356;2022-08-18T04:04:41;13.10;;;10.20;;
45762;SDS011;37512;52.408;13.356;2022-08-18T04:08:43;13.23;;;9.10;;
45762;SDS011;37512;52.408;13.356;2022-08-18T04:12:46;14.52;;;9.65;;
45762;SDS011;37512;52.408;13.356;2022-08-18T04:16:48;13.50;;;10.00;;
45762;SDS011;37512;52.408;13.356;2022-08-18T04:20:50;14.25;;;10.50;;
45762;SDS011;37512;52.408;13.356;2022-08-18T04:24:59;15.52;;;10.40;;
45762;SDS011;37512;52.408;13.356;2022-08-18T04:29:02;15.13;;;10.30;;
45762;SDS011;37512;52.408;13.356;2022-08-18T04:33:04;17.77;;;11.13;;
45762;SDS011;37512;52.408;13.356;2022-08-18T04:37:07;16.48;;;10.57;;
45762;SDS011;37512;52.408;13.356;2022-08-18T04:41:10;15.35;;;10.20;;
45762;SDS011;37512;52.408;13.356;2022-08-18T04:45:13;11.77;;;9.98;;
45762;SDS011;37512;52.408;13.356;2022-08-18T04:49:15;10.30;;;8.80;;
45762;SDS011;37512;52.408;13.356;2022-08-18T04:53:17;14.65;;;9.80;;
45762;SDS011;37512;52.408;13.356;2022-08-18T04:57:50;10.45;;;9.25;;
45762;SDS011;37512;52.408;13.356;2022-08-18T05:01:52;11.05;;;9.63;;
45762;SDS011;37512;52.408;13.356;2022-08-18T05:05:54;12.95;;;9.98;;
45762;SDS011;37512;52.408;13.356;2022-08-18T05:09:58;19.23;;;9.73;;
45762;SDS011;37512;52.408;13.356;2022-08-18T05:14:00;12.68;;;9.98;;
45762;SDS011;37512;52.408;13.356;2022-08-18T05:18:04;17.75;;;10.48;;
45762;SDS011;37512;52.408;13.356;2022-08-18T05:22:08;15.30;;;9.27;;
45762;SDS011;37512;52.408;13.356;2022-08-18T05:26:12;15.35;;;10.65;;
45762;SDS011;37512;52.408;13.356;2022-08-18T05:30:14;11.45;;;9.52;;
45762;SDS011;37512;52.408;13.356;2022-08-18T05:34:17;19.02;;;9.43;;
45762;SDS011;37512;52.408;13.356;2022-08-18T05:39:05;13.32;;;10.48;;
45762;SDS011;37512;52.408;13.356;2022-08-18T05:42:59;14.13;;;10.38;;
45762;SDS011;37512;52.408;13.356;2022-08-18T05:51:11;11.70;;;9.60;;
45762;SDS011;37512;52.408;13.356;2022-08-18T05:59:55;16.00;;;10.48;;
45762;SDS011;37512;52.408;13.356;2022-08-18T06:04:04;12.32;;;10.02;;
45762;SDS011;37512;52.408;13.356;2022-08-18T06:08:14;12.82;;;10.40;;
45762;SDS011;37512;52.408;13.356;2022-08-18T06:12:34;13.35;;;10.27;;
45762;SDS011;37512;52.408;13.356;2022-08-18T06:34:00;14.50;;;9.40;;
45762;SDS011;37512;52.408;13.356;2022-08-18T06:42:40;41.33;;;11.75;;
45762;SDS011;37512;52.408;13.356;2022-08-18T06:50:57;12.80;;;8.77;;
45762;SDS011;37512;52.408;13.356;2022-08-18T06:55:05;11.27;;;9.02;;
45762;SDS011;37512;52.408;13.356;2022-08-18T07:03:21;11.75;;;8.82;;
45762;SDS011;37512;52.408;13.356;2022-08-18T07:07:29;13.85;;;8.85;;
45762;SDS011;37512;52.408;13.356;2022-08-18T07:11:44;11.27;;;8.40;;
45762;SDS011;37512;52.408;13.356;2022-08-18T07:20:48;13.75;;;8.65;;
45762;SDS011;37512;52.408;13.356;2022-08-18T07:24:55;10.00;;;8.25;;
45762;SDS011;37512;52.408;13.356;2022-08-18T07:29:14;9.38;;;8.15;;
45762;SDS011;37512;52.408;13.356;2022-08-18T07:33:17;11.93;;;8.57;;
45762;SDS011;37512;52.408;13.356;2022-08-18T07:37:28;10.85;;;9.23;;
45762;SDS011;37512;52.408;13.356;2022-08-18T07:41:53;11.05;;;8.93;;
45762;SDS011;37512;52.408;13.356;2022-08-18T07:46:04;11.50;;;9.00;;
45762;SDS011;37512;52.408;13.356;2022-08-18T07:50:16;9.88;;;8.88;;
45762;SDS011;37512;52.408;13.356;2022-08-18T07:54:41;12.80;;;9.30;;
45762;SDS011;37512;52.408;13.356;2022-08-18T07:59:05;10.88;;;9.18;;
45762;SDS011;37512;52.408;13.356;2022-08-18T08:07:50;10.32;;;8.65;;
45762;SDS011;37512;52.408;13.356;2022-08-18T08:16:45;15.35;;;9.55;;
45762;SDS011;37512;52.408;13.356;2022-08-18T08:21:04;11.18;;;8.45;;
45762;SDS011;37512;52.408;13.356;2022-08-18T08:34:05;11.77;;;9.38;;
45762;SDS011;37512;52.408;13.356;2022-08-18T08:38:18;12.07;;;9.25;;
45762;SDS011;37512;52.408;13.356;2022-08-18T08:51:42;20.67;;;9.35;;
45762;SDS011;37512;52.408;13.356;2022-08-18T08:55:46;13.25;;;7.90;;
45762;SDS011;37512;52.408;13.356;2022-08-18T08:59:53;16.88;;;8.93;;
45762;SDS011;37512;52.408;13.356;2022-08-18T09:17:42;11.88;;;8.98;;
45762;SDS011;37512;52.408;13.356;2022-08-18T09:25:54;9.88;;;8.30;;
45762;SDS011;37512;52.408;13.356;2022-08-18T09:29:58;14.65;;;8.90;;
45762;SDS011;37512;52.408;13.356;2022-08-18T09:34:08;13.90;;;8.38;;
45762;SDS011;37512;52.408;13.356;2022-08-18T09:38:18;11.55;;;7.78;;
45762;SDS011;37512;52.408;13.356;2022-08-18T09:42:45;9.87;;;7.97;;
45762;SDS011;37512;52.408;13.356;2022-08-18T09:46:57;22.77;;;9.80;;
45762;SDS011;37512;52.408;13.356;2022-08-18T10:03:34;10.93;;;7.95;;
45762;SDS011;37512;52.408;13.356;2022-08-18T10:07:39;10.77;;;8.77;;
45762;SDS011;37512;52.408;13.356;2022-08-18T10:11:47;11.82;;;7.63;;
45762;SDS011;37512;52.408;13.356;2022-08-18T10:20:39;14.05;;;8.15;;
45762;SDS011;37512;52.408;13.356;2022-08-18T10:24:52;14.98;;;7.93;;
45762;SDS011;37512;52.408;13.356;2022-08-18T10:33:06;15.68;;;8.20;;
45762;SDS011;37512;52.408;13.356;2022-08-18T10:37:26;12.48;;;7.95;;
45762;SDS011;37512;52.408;13.356;2022-08-18T10:45:47;10.80;;;7.35;;
45762;SDS011;37512;52.408;13.356;2022-08-18T10:50:19;12.55;;;7.30;;
45762;SDS011;37512;52.408;13.356;2022-08-18T10:54:36;11.95;;;7.22;;
45762;SDS011;37512;52.408;13.356;2022-08-18T11:03:29;10.95;;;7.25;;
45762;SDS011;37512;52.408;13.356;2022-08-18T11:08:03;8.57;;;7.38;;
45762;SDS011;37512;52.408;13.356;2022-08-18T11:12:37;7.85;;;6.57;;
45762;SDS011;37512;52.408;13.356;2022-08-18T11:17:00;9.35;;;6.95;;
45762;SDS011;37512;52.408;13.356;2022-08-18T11:25:43;9.43;;;7.15;;
45762;SDS011;37512;52.408;13.356;2022-08-18T11:29:45;14.48;;;7.97;;
45762;SDS011;37512;52.408;13.356;2022-08-18T11:33:47;7.75;;;6.40;;
45762;SDS011;37512;52.408;13.356;2022-08-18T11:38:10;8.18;;;5.60;;
45762;SDS011;37512;52.408;13.356;2022-08-18T11:42:33;7.55;;;6.20;;
45762;SDS011;37512;52.408;13.356;2022-08-18T11:50:44;7.88;;;5.75;;
45762;SDS011;37512;52.408;13.356;2022-08-18T11:55:04;6.50;;;5.68;;
45762;SDS011;37512;52.408;13.356;2022-08-18T12:03:52;10.98;;;5.72;;
45762;SDS011;37512;52.408;13.356;2022-08-18T12:07:54;7.97;;;5.72;;
45762;SDS011;37512;52.408;13.356;2022-08-18T12:12:03;12.80;;;5.50;;
45762;SDS011;37512;52.408;13.356;2022-08-18T12:16:36;8.95;;;5.78;;
45762;SDS011;37512;52.408;13.356;2022-08-18T12:20:47;5.43;;;4.93;;
45762;SDS011;37512;52.408;13.356;2022-08-18T12:24:51;5.68;;;4.97;;
45762;SDS011;37512;52.408;13.356;2022-08-18T12:28:54;8.00;;;5.60;;
45762;SDS011;37512;52.408;13.356;2022-08-18T12:33:01;6.20;;;5.00;;
45762;SDS011;37512;52.408;13.356;2022-08-18T12:37:14;9.40;;;5.10;;
45762;SDS011;37512;52.408;13.356;2022-08-18T12:41:38;6.90;;;5.60;;
45762;SDS011;37512;52.408;13.356;2022-08-18T12:45:39;8.48;;;5.72;;
45762;SDS011;37512;52.408;13.356;2022-08-18T12:49:42;6.85;;;5.32;;
45762;SDS011;37512;52.408;13.356;2022-08-18T12:53:43;9.00;;;5.60;;
45762;SDS011;37512;52.408;13.356;2022-08-18T12:58:00;11.88;;;4.97;;
45762;SDS011;37512;52.408;13.356;2022-08-18T13:02:04;6.05;;;4.43;;
45762;SDS011;37512;52.408;13.356;2022-08-18T13:06:06;7.40;;;4.75;;
45762;SDS011;37512;52.408;13.356;2022-08-18T13:10:08;5.95;;;5.35;;
45762;SDS011;37512;52.408;13.356;2022-08-18T13:14:29;6.40;;;5.72;;
45762;SDS011;37512;52.408;13.356;2022-08-18T13:18:31;7.38;;;6.00;;
45762;SDS011;37512;52.408;13.356;2022-08-18T13:22:32;7.63;;;5.60;;
45762;SDS011;37512;52.408;13.356;2022-08-18T13:26:36;6.55;;;5.95;;
45762;SDS011;37512;52.408;13.356;2022-08-18T13:30:41;7.15;;;5.97;;
45762;SDS011;37512;52.408;13.356;2022-08-18T13:34:43;8.50;;;6.50;;
45762;SDS011;37512;52.408;13.356;2022-08-18T13:38:50;8.05;;;5.68;;
45762;SDS011;37512;52.408;13.356;2022-08-18T13:42:55;9.60;;;5.85;;
45762;SDS011;37512;52.408;13.356;2022-08-18T13:46:57;8.73;;;6.18;;
45762;SDS011;37512;52.408;13.356;2022-08-18T13:50:59;6.50;;;5.88;;
45762;SDS011;37512;52.408;13.356;2022-08-18T13:55:03;6.95;;;6.28;;
45762;SDS011;37512;52.408;13.356;2022-08-18T13:59:12;9.05;;;6.35;;
45762;SDS011;37512;52.408;13.356;2022-08-18T14:03:20;6.15;;;5.55;;
45762;SDS011;37512;52.408;13.356;2022-08-18T14:07:43;10.32;;;6.05;;
45762;SDS011;37512;52.408;13.356;2022-08-18T14:11:45;10.63;;;5.97;;
45762;SDS011;37512;52.408;13.356;2022-08-18T14:15:52;7.85;;;6.05;;
45762;SDS011;37512;52.408;13.356;2022-08-18T14:19:56;9.48;;;5.75;;
45762;SDS011;37512;52.408;13.356;2022-08-18T14:24:24;10.07;;;5.97;;
45762;SDS011;37512;52.408;13.356;2022-08-18T14:28:49;8.13;;;5.47;;
45762;SDS011;37512;52.408;13.356;2022-08-18T14:32:52;7.10;;;5.20;;
45762;SDS011;37512;52.408;13.356;2022-08-18T14:36:58;8.65;;;5.00;;
45762;SDS011;37512;52.408;13.356;2022-08-18T14:41:01;9.93;;;5.38;;
45762;SDS011;37512;52.408;13.356;2022-08-18T14:45:06;9.88;;;5.32;;
45762;SDS011;37512;52.408;13.356;2022-08-18T14:49:26;6.45;;;5.35;;
45762;SDS011;37512;52.408;13.356;2022-08-18T14:53:31;7.90;;;5.50;;
45762;SDS011;37512;52.408;13.356;2022-08-18T14:57:37;6.35;;;5.70;;
45762;SDS011;37512;52.408;13.356;2022-08-18T15:01:41;12.18;;;5.68;;
45762;SDS011;37512;52.408;13.356;2022-08-18T15:05:46;8.93;;;5.75;;
45762;SDS011;37512;52.408;13.356;2022-08-18T15:09:48;8.15;;;5.72;;
45762;SDS011;37512;52.408;13.356;2022-08-18T15:14:10;7.13;;;6.30;;
45762;SDS011;37512;52.408;13.356;2022-08-18T15:18:11;7.20;;;5.60;;
45762;SDS011;37512;52.408;13.356;2022-08-18T15:22:13;7.50;;;5.95;;
45762;SDS011;37512;52.408;13.356;2022-08-18T15:26:33;7.65;;;6.18;;
45762;SDS011;37512;52.408;13.356;2022-08-18T15:30:41;7.15;;;5.68;;
45762;SDS011;37512;52.408;13.356;2022-08-18T15:34:45;7.82;;;5.88;;
45762;SDS011;37512;52.408;13.356;2022-08-18T15:38:51;6.43;;;5.60;;
45762;SDS011;37512;52.408;13.356;2022-08-18T15:42:57;8.88;;;5.68;;
45762;SDS011;37512;52.408;13.356;2022-08-18T15:47:02;6.80;;;6.05;;
45762;SDS011;37512;52.408;13.356;2022-08-18T15:51:04;8.07;;;6.20;;
45762;SDS011;37512;52.408;13.356;2022-08-18T15:55:12;9.57;;;6.07;;
45762;SDS011;37512;52.408;13.356;2022-08-18T15:59:14;9.30;;;5.55;;
45762;SDS011;37512;52.408;13.356;2022-08-18T16:03:16;8.73;;;5.63;;
45762;SDS011;37512;52.408;13.356;2022-08-18T16:07:20;8.60;;;5.63;;
45762;SDS011;37512;52.408;13.356;2022-08-18T16:11:41;11.10;;;5.40;;
45762;SDS011;37512;52.408;13.356;2022-08-18T16:15:43;9.95;;;5.85;;
45762;SDS011;37512;52.408;13.356;2022-08-18T16:19:47;9.27;;;6.25;;
45762;SDS011;37512;52.408;13.356;2022-08-18T16:23:50;10.45;;;5.53;;
45762;SDS011;37512;52.408;13.356;2022-08-18T16:27:53;6.30;;;5.32;;
45762;SDS011;37512;52.408;13.356;2022-08-18T16:31:55;6.78;;;5.43;;
45762;SDS011;37512;52.408;13.356;2022-08-18T16:36:01;14.60;;;5.95;;
45762;SDS011;37512;52.408;13.356;2022-08-18T16:40:06;10.35;;;5.15;;
45762;SDS011;37512;52.408;13.356;2022-08-18T16:44:08;7.47;;;5.57;;
45762;SDS011;37512;52.408;13.356;2022-08-18T16:48:10;7.53;;;5.20;;
45762;SDS011;37512;52.408;13.356;2022-08-18T16:52:17;7.78;;;5.75;;
45762;SDS011;37512;52.408;13.356;2022-08-18T16:56:24;7.68;;;5.78;;
45762;SDS011;37512;52.408;13.356;2022-08-18T17:00:28;8.60;;;5.73;;
45762;SDS011;37512;52.408;13.356;2022-08-18T17:04:55;6.35;;;4.80;;
45762;SDS011;37512;52.408;13.356;2022-08-18T17:09:02;7.50;;;5.65;;
45762;SDS011;37512;52.408;13.356;2022-08-18T17:13:10;6.90;;;5.80;;
45762;SDS011;37512;52.408;13.356;2022-08-18T17:17:11;9.32;;;6.28;;
45762;SDS011;37512;52.408;13.356;2022-08-18T17:21:15;12.48;;;7.53;;
45762;SDS011;37512;52.408;13.356;2022-08-18T17:25:19;8.38;;;7.25;;
45762;SDS011;37512;52.408;13.356;2022-08-18T17:29:30;11.30;;;8.40;;
45762;SDS011;37512;52.408;13.356;2022-08-18T17:33:35;9.27;;;7.38;;
45762;SDS011;37512;52.408;13.356;2022-08-18T17:37:42;8.73;;;6.90;;
45762;SDS011;37512;52.408;13.356;2022-08-18T17:41:49;9.85;;;7.00;;
45762;SDS011;37512;52.408;13.356;2022-08-18T17:50:35;9.40;;;7.82;;
45762;SDS011;37512;52.408;13.356;2022-08-18T17:55:04;11.70;;;8.05;;
45762;SDS011;37512;52.408;13.356;2022-08-18T17:59:21;9.57;;;7.68;;
45762;SDS011;37512;52.408;13.356;2022-08-18T18:03:47;8.20;;;7.40;;
45762;SDS011;37512;52.408;13.356;2022-08-18T18:11:50;10.48;;;7.07;;
45762;SDS011;37512;52.408;13.356;2022-08-18T18:15:54;12.10;;;7.22;;
45762;SDS011;37512;52.408;13.356;2022-08-18T18:24:30;10.82;;;9.18;;
45762;SDS011;37512;52.408;13.356;2022-08-18T18:28:33;14.40;;;10.73;;
45762;SDS011;37512;52.408;13.356;2022-08-18T18:32:55;10.88;;;7.65;;
45762;SDS011;37512;52.408;13.356;2022-08-18T18:37:03;9.07;;;7.15;;
45762;SDS011;37512;52.408;13.356;2022-08-18T18:41:25;9.02;;;8.13;;
45762;SDS011;37512;52.408;13.356;2022-08-18T18:45:28;8.80;;;7.80;;
45762;SDS011;37512;52.408;13.356;2022-08-18T18:49:41;8.85;;;7.38;;
45762;SDS011;37512;52.408;13.356;2022-08-18T18:54:12;8.23;;;7.25;;
45762;SDS011;37512;52.408;13.356;2022-08-18T19:02:34;7.45;;;6.68;;
45762;SDS011;37512;52.408;13.356;2022-08-18T19:06:58;11.27;;;7.88;;
45762;SDS011;37512;52.408;13.356;2022-08-18T19:15:23;10.25;;;7.60;;
45762;SDS011;37512;52.408;13.356;2022-08-18T19:19:30;13.65;;;8.63;;
45762;SDS011;37512;52.408;13.356;2022-08-18T19:23:43;10.50;;;7.35;;
45762;SDS011;37512;52.408;13.356;2022-08-18T19:27:54;10.38;;;7.20;;
45762;SDS011;37512;52.408;13.356;2022-08-18T19:36:41;9.07;;;7.90;;
45762;SDS011;37512;52.408;13.356;2022-08-18T19:45:22;8.95;;;8.05;;
45762;SDS011;37512;52.408;13.356;2022-08-18T19:49:44;10.30;;;7.72;;
45762;SDS011;37512;52.408;13.356;2022-08-18T20:03:21;7.97;;;6.93;;
45762;SDS011;37512;52.408;13.356;2022-08-18T20:16:26;14.13;;;8.15;;
45762;SDS011;37512;52.408;13.356;2022-08-18T20:21:19;14.38;;;8.35;;
45762;SDS011;37512;52.408;13.356;2022-08-18T20:29:18;15.70;;;10.50;;
45762;SDS011;37512;52.408;13.356;2022-08-18T20:33:40;18.85;;;10.27;;
45762;SDS011;37512;52.408;13.356;2022-08-18T20:37:46;17.90;;;12.43;;
45762;SDS011;37512;52.408;13.356;2022-08-18T20:41:48;17.05;;;11.07;;
45762;SDS011;37512;52.408;13.356;2022-08-18T20:45:55;19.48;;;12.68;;
45762;SDS011;37512;52.408;13.356;2022-08-18T20:54:39;14.50;;;12.90;;
45762;SDS011;37512;52.408;13.356;2022-08-18T20:59:12;14.65;;;11.85;;
45762;SDS011;37512;52.408;13.356;2022-08-18T21:03:18;15.90;;;13.15;;
45762;SDS011;37512;52.408;13.356;2022-08-18T21:11:41;14.65;;;11.90;;
45762;SDS011;37512;52.408;13.356;2022-08-18T21:15:46;14.07;;;12.57;;
45762;SDS011;37512;52.408;13.356;2022-08-18T21:19:49;15.75;;;13.43;;
45762;SDS011;37512;52.408;13.356;2022-08-18T21:23:51;14.68;;;13.07;;
45762;SDS011;37512;52.408;13.356;2022-08-18T21:27:55;16.38;;;14.68;;
45762;SDS011;37512;52.408;13.356;2022-08-18T21:32:19;16.60;;;13.70;;
45762;SDS011;37512;52.408;13.356;2022-08-18T21:36:22;15.75;;;13.20;;
45762;SDS011;37512;52.408;13.356;2022-08-18T21:40:29;15.18;;;13.55;;
45762;SDS011;37512;52.408;13.356;2022-08-18T21:44:39;15.48;;;13.82;;
45762;SDS011;37512;52.408;13.356;2022-08-18T21:52:54;16.85;;;14.70;;
45762;SDS011;37512;52.408;13.356;2022-08-18T21:57:16;18.90;;;15.25;;
45762;SDS011;37512;52.408;13.356;2022-08-18T22:01:21;16.00;;;13.07;;
45762;SDS011;37512;52.408;13.356;2022-08-18T22:05:29;18.25;;;13.05;;
45762;SDS011;37512;52.408;13.356;2022-08-18T22:09:57;15.65;;;12.70;;
45762;SDS011;37512;52.408;13.356;2022-08-18T22:14:43;14.57;;;12.00;;
45762;SDS011;37512;52.408;13.356;2022-08-18T22:27:31;16.55;;;14.00;;
45762;SDS011;37512;52.408;13.356;2022-08-18T22:31:37;15.18;;;13.30;;
45762;SDS011;37512;52.408;13.356;2022-08-18T22:35:41;16.08;;;14.07;;
45762;SDS011;37512;52.408;13.356;2022-08-18T22:43:57;16.42;;;13.50;;
45762;SDS011;37512;52.408;13.356;2022-08-18T22:47:58;14.82;;;13.00;;
45762;SDS011;37512;52.408;13.356;2022-08-18T22:52:00;14.90;;;13.10;;
45762;SDS011;37512;52.408;13.356;2022-08-18T22:56:02;14.93;;;13.30;;
45762;SDS011;37512;52.408;13.356;2022-08-18T23:00:09;15.63;;;13.00;;
45762;SDS011;37512;52.408;13.356;2022-08-18T23:04:13;14.90;;;13.30;;
45762;SDS011;37512;52.408;13.356;2022-08-18T23:08:20;17.08;;;14.02;;
45762;SDS011;37512;52.408;13.356;2022-08-18T23:12:38;18.67;;;14.68;;
45762;SDS011;37512;52.408;13.356;2022-08-18T23:16:40;15.90;;;14.23;;
45762;SDS011;37512;52.408;13.356;2022-08-18T23:20:46;16.63;;;14.93;;
45762;SDS011;37512;52.408;13.356;2022-08-18T23:24:48;13.95;;;12.43;;
45762;SDS011;37512;52.408;13.356;2022-08-18T23:28:50;14.88;;;13.27;;
45762;SDS011;37512;52.408;13.356;2022-08-18T23:32:53;17.75;;;14.38;;
45762;SDS011;37512;52.408;13.356;2022-08-18T23:36:56;14.95;;;12.80;;
45762;SDS011;37512;52.408;13.356;2022-08-18T23:41:00;14.93;;;12.85;;
45762;SDS011;37512;52.408;13.356;2022-08-18T23:45:02;15.25;;;12.75;;
45762;SDS011;37512;52.408;13.356;2022-08-18T23:49:05;15.65;;;13.30;;
45762;SDS011;37512;52.408;13.356;2022-08-18T23:53:11;13.27;;;11.60;;
45762;SDS011;37512;52.408;13.356;2022-08-18T23:57:15;13.23;;;11.75;;
